createdAt,value
2022-08-09T00:02:13.985Z,4.57
2022-08-09T00:18:05.171Z,5.72
2022-08-09T00:32:38.435Z,5.53
2022-08-09T00:47:40.731Z,5.50
2022-08-09T01:02:55.590Z,6.20
2022-08-09T01:18:29.855Z,5.68
2022-08-09T01:33:37.584Z,5.68
2022-08-09T01:48:42.289Z,5.90
2022-08-09T02:03:46.123Z,7.68
2022-08-09T02:18:49.422Z,7.68
2022-08-09T02:34:07.353Z,7.27
2022-08-09T02:49:19.515Z,6.95
2022-08-09T03:04:32.308Z,7.07
2022-08-09T03:19:59.311Z,7.60
2022-08-09T03:34:58.139Z,7.67
2022-08-09T04:05:17.304Z,8.05
2022-08-09T04:20:28.971Z,8.23
2022-08-09T04:35:32.785Z,8.23
2022-08-09T04:50:38.115Z,9.23
2022-08-09T05:05:52.278Z,7.43
2022-08-09T05:20:54.717Z,7.95
2022-08-09T05:35:57.203Z,7.70
2022-08-09T05:51:16.841Z,8.73
2022-08-09T06:06:21.259Z,11.63
2022-08-09T06:21:24.241Z,6.30
2022-08-09T06:36:27.388Z,6.65
2022-08-09T06:51:39.918Z,6.63
2022-08-09T07:06:42.100Z,6.90
2022-08-09T07:21:55.651Z,7.60
2022-08-09T07:37:02.763Z,7.15
2022-08-09T07:52:17.817Z,6.70
2022-08-09T08:08:06.501Z,6.88
2022-08-09T08:22:41.941Z,7.03
2022-08-09T08:38:04.419Z,6.15
2022-08-09T08:53:21.907Z,6.13
2022-08-09T09:08:30.082Z,6.15
2022-08-09T09:23:49.587Z,5.82
2022-08-09T09:39:09.996Z,6.35
2022-08-09T09:54:21.009Z,6.60
2022-08-09T10:09:24.181Z,5.45
2022-08-09T10:24:35.845Z,6.32
2022-08-09T10:39:49.272Z,4.82
2022-08-09T10:54:53.882Z,4.60
2022-08-09T11:09:59.815Z,3.60
2022-08-09T11:25:45.632Z,2.85
2022-08-09T11:40:52.985Z,2.70
2022-08-09T12:11:05.224Z,3.57
2022-08-09T12:26:25.481Z,2.72
2022-08-09T12:41:39.757Z,3.28
2022-08-09T12:56:51.257Z,3.25
2022-08-09T13:12:02.517Z,2.58
2022-08-09T13:27:08.437Z,3.40
2022-08-09T13:42:13.393Z,3.38
2022-08-09T13:57:36.575Z,3.28
2022-08-09T14:12:38.086Z,3.17
2022-08-09T14:27:56.851Z,3.05
2022-08-09T14:42:59.340Z,2.92
2022-08-09T14:58:04.835Z,2.95
2022-08-09T15:30:56.162Z,3.17
2022-08-09T15:45:14.057Z,2.63
2022-08-09T16:00:26.765Z,2.40
2022-08-09T16:16:10.306Z,3.05
2022-08-09T16:30:58.717Z,3.60
2022-08-09T16:46:01.605Z,3.75
2022-08-09T17:01:03.989Z,4.10
2022-08-09T17:16:06.449Z,3.75
2022-08-09T17:31:09.730Z,4.60
2022-08-09T17:46:11.609Z,4.47
2022-08-09T18:01:22.682Z,5.63
2022-08-09T18:16:29.547Z,4.85
2022-08-09T18:31:55.213Z,5.28
2022-08-09T18:47:07.776Z,5.60
2022-08-09T19:02:15.056Z,4.88
2022-08-09T19:17:18.450Z,5.70
2022-08-09T19:32:26.631Z,6.07
2022-08-09T19:47:31.516Z,5.13
2022-08-09T20:04:07.558Z,5.40
2022-08-09T20:18:02.412Z,5.35
2022-08-09T20:33:04.402Z,7.40
2022-08-09T20:48:08.462Z,5.30
2022-08-09T21:03:13.202Z,5.50
2022-08-09T21:18:27.451Z,8.07
2022-08-09T21:33:36.238Z,7.55
2022-08-09T21:48:39.857Z,7.82
2022-08-09T22:03:48.395Z,8.00
2022-08-09T22:19:01.198Z,8.73
2022-08-09T22:34:14.476Z,8.38
2022-08-09T22:49:17.160Z,9.00
2022-08-09T23:04:19.550Z,9.50
2022-08-09T23:19:21.460Z,9.60
2022-08-09T23:34:23.396Z,9.53
2022-08-09T23:49:26.310Z,9.27
